createdAt,value
2023-03-26T00:00:26.628Z,2.42
2023-03-26T00:02:57.323Z,1.27
2023-03-26T00:05:27.592Z,2.60
2023-03-26T00:07:57.867Z,1.83
2023-03-26T00:10:28.367Z,1.70
2023-03-26T00:13:01.497Z,2.63
2023-03-26T00:15:31.724Z,1.50
2023-03-26T00:18:03.124Z,1.92
2023-03-26T00:20:34.905Z,2.00
2023-03-26T00:23:05.254Z,2.03
2023-03-26T00:25:35.469Z,2.17
2023-03-26T00:28:09.127Z,2.33
2023-03-26T00:30:41.908Z,2.40
2023-03-26T00:33:17.446Z,2.20
2023-03-26T00:35:48.928Z,5.13
2023-03-26T00:38:19.438Z,2.08
2023-03-26T00:40:51.232Z,2.47
2023-03-26T00:43:26.709Z,2.25
2023-03-26T00:45:58.596Z,3.38
2023-03-26T00:48:43.940Z,1.65
2023-03-26T00:51:18.317Z,4.68
2023-03-26T00:53:50.064Z,2.80
2023-03-26T00:56:21.471Z,2.33
2023-03-26T00:58:57.895Z,4.97
2023-03-26T01:01:30.898Z,1.95
2023-03-26T01:04:24.422Z,2.60
2023-03-26T01:06:55.687Z,2.33
2023-03-26T01:09:34.705Z,2.35
2023-03-26T01:12:08.798Z,3.10
2023-03-26T01:17:12.677Z,1.98
2023-03-26T01:19:51.439Z,3.38
2023-03-26T01:22:24.714Z,2.75
2023-03-26T01:24:57.753Z,2.35
2023-03-26T01:27:41.833Z,2.17
2023-03-26T01:30:20.730Z,2.28
2023-03-26T01:33:00.914Z,2.15
2023-03-26T01:35:40.582Z,2.17
2023-03-26T01:38:25.894Z,1.85
2023-03-26T01:41:05.363Z,3.38
2023-03-26T01:43:42.418Z,2.17
2023-03-26T01:46:14.578Z,2.00
2023-03-26T01:48:47.107Z,2.08
2023-03-26T01:51:28.956Z,2.08
2023-03-26T01:54:01.061Z,2.55
2023-03-26T01:56:43.456Z,2.00
2023-03-26T01:59:27.391Z,2.75
2023-03-26T02:02:07.464Z,1.77
2023-03-26T02:04:45.601Z,2.13
2023-03-26T02:07:21.157Z,2.55
2023-03-26T02:09:57.198Z,2.70
2023-03-26T02:12:32.237Z,2.70
2023-03-26T02:15:04.099Z,2.58
2023-03-26T02:17:34.495Z,2.20
2023-03-26T02:20:11.071Z,3.20
2023-03-26T02:22:46.000Z,2.42
2023-03-26T02:25:22.255Z,3.38
2023-03-26T02:27:56.347Z,2.97
2023-03-26T02:30:29.966Z,2.38
2023-03-26T02:33:03.764Z,1.92
2023-03-26T02:35:34.140Z,3.05
2023-03-26T02:38:04.829Z,3.03
2023-03-26T02:40:35.186Z,2.95
2023-03-26T02:43:08.371Z,4.50
2023-03-26T02:45:38.784Z,2.80
2023-03-26T02:48:09.609Z,2.55
2023-03-26T02:50:39.977Z,3.03
2023-03-26T02:53:12.042Z,2.28
2023-03-26T02:55:42.306Z,3.03
2023-03-26T02:58:17.689Z,3.00
2023-03-26T03:00:48.023Z,2.92
2023-03-26T03:03:19.386Z,2.28
2023-03-26T03:05:49.826Z,2.97
2023-03-26T03:08:20.393Z,2.50
2023-03-26T03:10:59.420Z,2.28
2023-03-26T03:13:32.692Z,2.28
2023-03-26T03:16:03.095Z,3.72
2023-03-26T03:18:33.366Z,2.80
2023-03-26T03:21:08.847Z,1.83
2023-03-26T03:23:39.247Z,2.47
2023-03-26T03:26:16.165Z,3.15
2023-03-26T03:28:49.045Z,3.33
2023-03-26T03:31:22.766Z,2.10
2023-03-26T03:33:53.252Z,2.25
2023-03-26T03:36:28.053Z,2.85
2023-03-26T03:39:02.832Z,3.42
2023-03-26T03:41:33.323Z,2.38
2023-03-26T03:44:06.405Z,2.55
2023-03-26T03:46:36.843Z,2.58
2023-03-26T03:49:07.095Z,2.20
2023-03-26T03:51:37.392Z,2.83
2023-03-26T03:54:08.728Z,2.35
2023-03-26T03:56:39.336Z,2.53
2023-03-26T03:59:12.383Z,2.33
2023-03-26T04:01:43.336Z,5.07
2023-03-26T04:04:13.582Z,2.60
2023-03-26T04:06:43.872Z,3.17
2023-03-26T04:09:14.146Z,3.28
2023-03-26T04:11:44.438Z,2.75
2023-03-26T04:14:17.285Z,3.75
2023-03-26T04:16:49.241Z,3.38
2023-03-26T04:19:19.596Z,2.97
2023-03-26T04:21:49.882Z,2.38
2023-03-26T04:24:20.775Z,2.72
2023-03-26T04:26:51.381Z,3.35
2023-03-26T04:29:28.129Z,4.03
2023-03-26T04:32:06.747Z,2.67
2023-03-26T04:34:37.346Z,2.90
2023-03-26T04:37:07.898Z,3.10
2023-03-26T04:39:39.263Z,3.22
2023-03-26T04:42:12.967Z,3.63
2023-03-26T04:44:45.752Z,4.03
2023-03-26T04:47:16.181Z,2.88
2023-03-26T04:49:46.538Z,3.80
2023-03-26T04:52:17.843Z,4.30
2023-03-26T04:54:49.562Z,3.83
2023-03-26T04:57:24.602Z,3.28
2023-03-26T04:59:57.526Z,3.05
2023-03-26T05:02:27.945Z,3.28
2023-03-26T05:04:58.252Z,3.08
2023-03-26T05:07:28.475Z,4.00
2023-03-26T05:10:03.606Z,3.70
2023-03-26T05:12:33.990Z,2.97
2023-03-26T05:15:07.594Z,2.33
2023-03-26T05:17:41.805Z,3.22
2023-03-26T05:20:21.087Z,3.70
2023-03-26T05:22:52.807Z,2.33
2023-03-26T05:25:23.360Z,2.58
2023-03-26T05:27:53.610Z,2.33
2023-03-26T05:30:27.224Z,3.40
2023-03-26T05:32:57.648Z,5.03
2023-03-26T05:35:27.935Z,2.25
2023-03-26T05:37:58.155Z,3.15
2023-03-26T05:40:28.446Z,2.50
2023-03-26T05:42:58.762Z,3.80
2023-03-26T05:45:31.867Z,2.40
2023-03-26T05:48:02.312Z,2.08
2023-03-26T05:50:32.629Z,2.53
2023-03-26T05:53:02.860Z,1.95
2023-03-26T05:55:33.605Z,1.88
2023-03-26T05:58:04.046Z,2.85
2023-03-26T06:00:39.142Z,4.85
2023-03-26T06:03:13.202Z,2.78
2023-03-26T06:05:43.700Z,2.85
2023-03-26T06:08:14.239Z,3.10
2023-03-26T06:10:45.220Z,3.95
2023-03-26T06:13:16.519Z,4.28
2023-03-26T06:15:49.398Z,4.78
2023-03-26T06:18:20.857Z,3.45
2023-03-26T06:20:51.361Z,5.95
2023-03-26T06:23:23.080Z,4.07
2023-03-26T06:25:53.289Z,3.67
2023-03-26T06:28:23.524Z,2.50
2023-03-26T06:30:57.052Z,3.15
2023-03-26T06:33:27.646Z,3.15
2023-03-26T06:35:58.206Z,4.32
2023-03-26T06:38:28.665Z,3.55
2023-03-26T06:41:05.687Z,2.50
2023-03-26T06:43:37.264Z,3.08
2023-03-26T06:46:10.307Z,3.53
2023-03-26T06:48:41.025Z,3.63
2023-03-26T06:51:11.415Z,2.85
2023-03-26T06:53:41.792Z,4.35
2023-03-26T06:56:13.055Z,4.78
2023-03-26T06:58:48.249Z,3.25
2023-03-26T07:01:21.257Z,4.70
2023-03-26T07:03:51.879Z,3.83
2023-03-26T07:06:26.140Z,3.17
2023-03-26T07:08:57.629Z,5.47
2023-03-26T07:11:29.160Z,4.00
2023-03-26T07:13:59.773Z,3.78
2023-03-26T07:16:34.811Z,3.60
2023-03-26T07:19:07.175Z,2.90
2023-03-26T07:21:41.167Z,2.83
2023-03-26T07:24:14.103Z,3.63
2023-03-26T07:26:54.915Z,4.38
2023-03-26T07:29:36.681Z,4.15
2023-03-26T07:32:19.098Z,3.40
2023-03-26T07:34:56.330Z,3.25
2023-03-26T07:37:42.244Z,3.53
2023-03-26T07:40:23.426Z,3.25
2023-03-26T07:43:06.283Z,3.55
2023-03-26T07:45:42.591Z,3.55
2023-03-26T07:48:20.496Z,3.75
2023-03-26T07:50:52.175Z,4.50
2023-03-26T07:53:23.524Z,6.55
2023-03-26T07:56:04.554Z,3.63
2023-03-26T07:58:48.354Z,6.05
2023-03-26T08:01:28.283Z,3.22
2023-03-26T08:04:27.984Z,3.63
2023-03-26T08:07:03.654Z,4.63
2023-03-26T08:09:42.856Z,2.22
2023-03-26T08:12:21.477Z,4.40
2023-03-26T08:14:59.898Z,3.35
2023-03-26T08:17:38.571Z,2.67
2023-03-26T08:20:25.364Z,2.20
2023-03-26T08:23:04.861Z,3.28
2023-03-26T08:25:40.590Z,3.67
2023-03-26T08:28:23.954Z,3.05
2023-03-26T08:30:57.686Z,3.30
2023-03-26T08:33:31.360Z,1.95
2023-03-26T08:36:04.322Z,3.10
2023-03-26T08:38:36.702Z,4.10
2023-03-26T08:41:42.827Z,4.07
2023-03-26T08:44:52.480Z,3.45
2023-03-26T08:47:53.185Z,2.67
2023-03-26T08:51:10.881Z,2.10
2023-03-26T08:54:14.191Z,2.90
2023-03-26T08:56:55.999Z,2.85
2023-03-26T08:59:53.676Z,4.47
2023-03-26T09:02:54.261Z,2.97
2023-03-26T09:05:54.998Z,6.30
2023-03-26T09:09:00.538Z,2.63
2023-03-26T09:11:51.190Z,5.13
2023-03-26T09:14:54.933Z,2.95
2023-03-26T09:17:58.233Z,2.53
2023-03-26T09:20:56.149Z,2.40
2023-03-26T09:23:56.283Z,3.45
2023-03-26T09:26:40.229Z,3.47
2023-03-26T09:29:43.299Z,4.50
2023-03-26T09:32:59.375Z,3.35
2023-03-26T09:35:57.228Z,2.67
2023-03-26T09:38:45.062Z,2.13
2023-03-26T09:41:20.957Z,3.17
2023-03-26T09:44:25.304Z,3.33
2023-03-26T09:47:15.046Z,2.42
2023-03-26T09:49:56.644Z,3.50
2023-03-26T09:52:54.319Z,3.10
2023-03-26T09:55:48.809Z,3.30
2023-03-26T09:58:42.409Z,2.80
2023-03-26T10:01:20.789Z,3.15
2023-03-26T10:04:00.764Z,3.53
2023-03-26T10:06:54.976Z,2.58
2023-03-26T10:09:39.519Z,4.55
2023-03-26T10:12:21.299Z,3.45
2023-03-26T10:15:04.438Z,2.00
2023-03-26T10:17:49.581Z,2.63
2023-03-26T10:20:40.780Z,2.80
2023-03-26T10:23:27.592Z,3.05
2023-03-26T10:26:07.325Z,3.22
2023-03-26T10:28:51.514Z,4.88
2023-03-26T10:34:28.708Z,2.70
2023-03-26T10:37:09.313Z,2.03
2023-03-26T10:40:00.813Z,2.15
2023-03-26T10:42:52.938Z,3.67
2023-03-26T10:45:40.221Z,3.13
2023-03-26T10:48:27.532Z,3.65
2023-03-26T10:51:24.953Z,3.25
2023-03-26T10:53:59.069Z,3.53
2023-03-26T10:56:35.839Z,3.83
2023-03-26T10:59:09.944Z,3.13
2023-03-26T11:01:53.041Z,4.45
2023-03-26T11:04:35.856Z,2.43
2023-03-26T11:07:16.811Z,3.08
2023-03-26T11:09:54.632Z,5.10
2023-03-26T11:12:36.455Z,3.13
2023-03-26T11:15:22.841Z,3.17
2023-03-26T11:18:04.873Z,1.98
2023-03-26T11:20:40.609Z,2.85
2023-03-26T11:23:26.946Z,2.17
2023-03-26T11:26:12.093Z,2.75
2023-03-26T11:29:32.217Z,2.65
2023-03-26T11:32:08.375Z,3.60
2023-03-26T11:34:43.432Z,2.03
2023-03-26T11:37:21.897Z,3.33
2023-03-26T11:39:56.596Z,4.15
2023-03-26T11:42:29.991Z,2.65
2023-03-26T11:45:09.090Z,3.17
2023-03-26T11:47:46.651Z,3.45
2023-03-26T11:50:24.453Z,2.85
2023-03-26T11:52:54.775Z,4.10
2023-03-26T11:55:30.055Z,3.00
2023-03-26T11:58:05.354Z,4.72
2023-03-26T12:00:40.542Z,2.95
2023-03-26T12:03:21.048Z,2.25
2023-03-26T12:05:53.840Z,4.53
2023-03-26T12:08:36.878Z,2.95
2023-03-26T12:11:11.264Z,2.97
2023-03-26T12:13:44.863Z,2.28
2023-03-26T12:16:19.998Z,4.32
2023-03-26T12:19:05.673Z,3.10
2023-03-26T12:21:48.574Z,3.20
2023-03-26T12:24:31.260Z,3.25
2023-03-26T12:27:06.358Z,2.20
2023-03-26T12:29:37.160Z,2.65
2023-03-26T12:32:17.196Z,2.67
2023-03-26T12:34:47.990Z,3.10
2023-03-26T12:37:49.270Z,2.90
2023-03-26T12:40:36.126Z,5.20
2023-03-26T12:44:53.965Z,2.80
2023-03-26T12:47:46.055Z,2.00
2023-03-26T12:48:58.403Z,3.97
2023-03-26T12:51:46.048Z,4.93
2023-03-26T12:54:29.015Z,3.10
2023-03-26T12:57:17.204Z,2.83
2023-03-26T13:00:02.105Z,3.90
2023-03-26T13:02:53.714Z,2.55
2023-03-26T13:05:40.133Z,2.92
2023-03-26T13:08:32.905Z,3.30
2023-03-26T13:11:13.820Z,3.58
2023-03-26T13:14:13.776Z,3.10
2023-03-26T13:16:51.521Z,3.60
2023-03-26T13:19:30.036Z,4.80
2023-03-26T13:22:18.141Z,2.08
2023-03-26T13:24:56.724Z,3.42
2023-03-26T13:27:40.075Z,2.15
2023-03-26T13:30:23.567Z,3.08
2023-03-26T13:33:05.713Z,6.22
2023-03-26T13:35:42.728Z,2.38
2023-03-26T13:38:23.728Z,3.15
2023-03-26T13:41:05.021Z,2.60
2023-03-26T13:43:47.803Z,4.88
2023-03-26T13:46:29.145Z,5.10
2023-03-26T13:49:04.682Z,2.90
2023-03-26T13:51:43.162Z,3.78
2023-03-26T13:54:26.910Z,3.20
2023-03-26T13:57:02.953Z,4.03
2023-03-26T13:59:39.738Z,3.03
2023-03-26T14:02:18.636Z,4.10
2023-03-26T14:04:52.736Z,2.60
2023-03-26T14:07:28.237Z,2.33
2023-03-26T14:10:08.109Z,2.97
2023-03-26T14:12:51.998Z,3.30
2023-03-26T14:15:28.844Z,3.95
2023-03-26T14:18:09.693Z,3.30
2023-03-26T14:21:09.096Z,2.17
2023-03-26T14:24:02.137Z,1.92
2023-03-26T14:26:52.164Z,2.83
2023-03-26T14:29:57.834Z,3.08
2023-03-26T14:33:01.356Z,3.83
2023-03-26T14:35:38.875Z,4.05
2023-03-26T14:38:35.922Z,3.75
2023-03-26T14:41:18.790Z,4.72
2023-03-26T14:44:24.618Z,2.55
2023-03-26T14:47:14.573Z,2.53
2023-03-26T14:50:31.687Z,2.72
2023-03-26T14:53:06.277Z,4.82
2023-03-26T14:56:04.706Z,4.18
2023-03-26T14:59:05.832Z,3.05
2023-03-26T15:02:07.340Z,2.45
2023-03-26T15:05:11.552Z,2.95
2023-03-26T15:08:15.266Z,4.33
2023-03-26T15:11:00.896Z,3.65
2023-03-26T15:13:51.965Z,4.15
2023-03-26T15:16:53.816Z,3.95
2023-03-26T15:19:53.993Z,2.95
2023-03-26T15:22:54.221Z,3.80
2023-03-26T15:26:08.278Z,2.15
2023-03-26T15:29:06.510Z,4.43
2023-03-26T15:32:03.109Z,3.60
2023-03-26T15:35:04.316Z,2.30
2023-03-26T15:38:11.332Z,3.33
2023-03-26T15:40:54.491Z,3.47
2023-03-26T15:43:33.183Z,3.05
2023-03-26T15:46:29.237Z,3.33
2023-03-26T15:49:14.842Z,2.63
2023-03-26T15:51:54.015Z,3.55
2023-03-26T15:54:29.168Z,3.45
2023-03-26T15:57:12.606Z,2.58
2023-03-26T15:59:59.452Z,5.20
2023-03-26T16:02:39.177Z,2.38
2023-03-26T16:05:33.193Z,10.35
2023-03-26T16:08:14.987Z,3.28
2023-03-26T16:10:54.033Z,4.82
2023-03-26T16:13:34.399Z,4.60
2023-03-26T16:16:48.719Z,4.13
2023-03-26T16:19:52.265Z,3.88
2023-03-26T16:22:56.933Z,4.10
2023-03-26T16:25:33.894Z,4.60
2023-03-26T16:28:34.223Z,4.05
2023-03-26T16:31:38.659Z,4.50
2023-03-26T16:34:28.660Z,3.95
2023-03-26T16:37:02.632Z,7.30
2023-03-26T16:39:44.822Z,6.22
2023-03-26T16:42:37.534Z,5.78
2023-03-26T16:45:30.576Z,6.00
2023-03-26T16:48:20.062Z,5.32
2023-03-26T16:50:58.024Z,6.60
2023-03-26T16:53:43.714Z,5.35
2023-03-26T16:56:21.566Z,6.07
2023-03-26T16:58:59.524Z,5.32
2023-03-26T17:01:46.130Z,5.97
2023-03-26T17:04:24.234Z,5.13
2023-03-26T17:07:19.802Z,6.10
2023-03-26T17:10:10.586Z,6.82
2023-03-26T17:12:46.882Z,6.78
2023-03-26T17:18:46.446Z,4.50
2023-03-26T17:21:20.926Z,7.22
2023-03-26T17:24:15.279Z,6.60
2023-03-26T17:27:05.325Z,5.18
2023-03-26T17:29:59.811Z,8.52
2023-03-26T18:07:48.610Z,5.93
2023-03-26T18:10:37.580Z,6.78
2023-03-26T18:13:22.987Z,4.35
2023-03-26T18:16:02.645Z,7.03
2023-03-26T18:18:37.056Z,5.47
2023-03-26T18:21:09.509Z,5.50
2023-03-26T18:23:50.035Z,6.80
2023-03-26T18:26:24.520Z,5.13
2023-03-26T18:28:56.683Z,5.68
2023-03-26T18:31:29.179Z,6.00
2023-03-26T18:34:05.533Z,6.68
2023-03-26T18:36:38.821Z,6.93
2023-03-26T18:39:17.110Z,7.65
2023-03-26T18:41:48.125Z,5.93
2023-03-26T18:44:21.977Z,6.43
2023-03-26T18:46:57.192Z,5.78
2023-03-26T18:49:29.987Z,7.65
2023-03-26T18:52:02.329Z,7.32
2023-03-26T18:54:41.588Z,6.20
2023-03-26T18:57:15.630Z,8.38
2023-03-26T18:59:49.065Z,7.63
2023-03-26T19:02:20.795Z,8.65
2023-03-26T19:04:54.631Z,6.35
2023-03-26T19:07:29.611Z,10.52
2023-03-26T19:10:04.591Z,7.85
2023-03-26T19:12:37.595Z,9.88
2023-03-26T19:15:10.884Z,10.18
2023-03-26T19:17:45.236Z,8.67
2023-03-26T19:20:20.857Z,8.05
2023-03-26T19:22:52.379Z,11.02
2023-03-26T19:25:31.244Z,9.48
2023-03-26T19:28:02.186Z,8.48
2023-03-26T19:30:35.241Z,10.50
2023-03-26T19:34:35.059Z,7.05
2023-03-26T19:37:19.842Z,9.80
2023-03-26T19:39:53.400Z,7.20
2023-03-26T19:42:42.983Z,7.30
2023-03-26T19:45:19.785Z,7.82
2023-03-26T19:48:00.510Z,8.70
2023-03-26T19:50:42.300Z,8.35
2023-03-26T19:53:24.556Z,6.57
2023-03-26T19:56:00.109Z,8.15
2023-03-26T19:58:30.987Z,6.57
2023-03-26T20:04:44.571Z,6.55
2023-03-26T20:07:35.586Z,6.70
2023-03-26T20:10:08.398Z,8.18
2023-03-26T20:12:41.342Z,5.73
2023-03-26T20:15:20.371Z,10.95
2023-03-26T20:17:54.856Z,6.03
2023-03-26T20:20:27.681Z,5.70
2023-03-26T20:23:01.786Z,6.07
2023-03-26T20:25:36.862Z,5.55
2023-03-26T20:28:09.132Z,6.80
2023-03-26T20:30:39.689Z,6.43
2023-03-26T20:33:18.104Z,6.60
2023-03-26T20:35:48.895Z,5.65
2023-03-26T20:38:36.613Z,5.60
2023-03-26T20:41:09.951Z,5.65
2023-03-26T20:43:40.467Z,6.57
2023-03-26T20:46:15.455Z,6.05
2023-03-26T20:48:45.818Z,7.18
2023-03-26T20:51:17.453Z,5.97
2023-03-26T20:53:51.044Z,5.35
2023-03-26T20:56:23.672Z,6.80
2023-03-26T21:01:31.684Z,6.05
2023-03-26T21:04:04.483Z,7.20
2023-03-26T21:06:35.018Z,5.65
2023-03-26T21:09:11.732Z,6.45
2023-03-26T21:11:53.007Z,5.15
2023-03-26T21:14:26.124Z,6.78
2023-03-26T21:16:57.449Z,5.47
2023-03-26T21:19:28.670Z,6.45
2023-03-26T22:43:52.273Z,6.03
2023-03-26T22:46:22.948Z,6.03
2023-03-26T22:48:53.327Z,5.13
2023-03-26T22:51:23.642Z,4.63
2023-03-26T22:53:54.282Z,7.25
2023-03-26T22:56:24.633Z,7.57
2023-03-26T22:58:58.102Z,4.75
2023-03-26T23:01:28.393Z,4.38
2023-03-26T23:03:58.943Z,4.47
2023-03-26T23:06:29.294Z,6.40
2023-03-26T23:08:59.670Z,4.25
2023-03-26T23:11:31.352Z,5.22
2023-03-26T23:14:05.000Z,4.53
2023-03-26T23:16:35.274Z,4.68
2023-03-26T23:19:06.045Z,6.18
2023-03-26T23:21:36.904Z,3.97
2023-03-26T23:24:08.392Z,4.45
2023-03-26T23:26:49.520Z,5.28
2023-03-26T23:29:23.646Z,5.05
2023-03-26T23:31:56.356Z,4.47
2023-03-26T23:34:26.754Z,5.70
2023-03-26T23:36:58.266Z,4.82
2023-03-26T23:39:28.774Z,5.25
2023-03-26T23:41:59.082Z,5.15
2023-03-26T23:44:34.772Z,4.13
2023-03-26T23:47:10.625Z,5.38
2023-03-26T23:49:41.590Z,5.53
2023-03-26T23:52:11.950Z,3.80
2023-03-26T23:54:42.780Z,5.53
2023-03-26T23:57:14.024Z,6.05
2023-03-26T23:59:47.105Z,4.82
